sensor_id;sensor_type;location;lat;lon;timestamp;P1;durP1;ratioP1;P2;durP2;ratioP2
5813;SDS011;2933;52.302;8.134;2023-03-23T00:04:15;9.23;;;6.30;;
5813;SDS011;2933;52.302;8.134;2023-03-23T00:09:16;18.93;;;7.30;;
5813;SDS011;2933;52.302;8.134;2023-03-23T00:14:23;12.27;;;7.20;;
5813;SDS011;2933;52.302;8.134;2023-03-23T00:19:26;11.80;;;6.30;;
5813;SDS011;2933;52.302;8.134;2023-03-23T00:24:28;7.00;;;6.17;;
5813;SDS011;2933;52.302;8.134;2023-03-23T00:29:29;10.73;;;6.63;;
5813;SDS011;2933;52.302;8.134;2023-03-23T00:34:33;9.50;;;5.87;;
5813;SDS011;2933;52.302;8.134;2023-03-23T00:39:35;10.50;;;6.10;;
5813;SDS011;2933;52.302;8.134;2023-03-23T00:44:37;9.20;;;6.50;;
5813;SDS011;2933;52.302;8.134;2023-03-23T00:49:41;9.37;;;6.60;;
5813;SDS011;2933;52.302;8.134;2023-03-23T00:54:42;11.53;;;7.23;;
5813;SDS011;2933;52.302;8.134;2023-03-23T00:59:44;15.23;;;6.80;;
5813;SDS011;2933;52.302;8.134;2023-03-23T01:04:47;9.97;;;7.13;;
5813;SDS011;2933;52.302;8.134;2023-03-23T01:09:52;13.97;;;6.87;;
5813;SDS011;2933;52.302;8.134;2023-03-23T01:14:54;12.60;;;6.53;;
5813;SDS011;2933;52.302;8.134;2023-03-23T01:19:57;10.73;;;6.20;;
5813;SDS011;2933;52.302;8.134;2023-03-23T01:24:58;13.30;;;5.60;;
5813;SDS011;2933;52.302;8.134;2023-03-23T01:30:00;5.90;;;5.30;;
5813;SDS011;2933;52.302;8.134;2023-03-23T01:35:03;5.50;;;5.00;;
5813;SDS011;2933;52.302;8.134;2023-03-23T01:40:06;6.77;;;5.20;;
5813;SDS011;2933;52.302;8.134;2023-03-23T01:50:29;6.97;;;5.70;;
5813;SDS011;2933;52.302;8.134;2023-03-23T01:55:36;7.80;;;5.33;;
5813;SDS011;2933;52.302;8.134;2023-03-23T02:00:40;9.33;;;6.20;;
5813;SDS011;2933;52.302;8.134;2023-03-23T02:05:44;7.77;;;4.70;;
5813;SDS011;2933;52.302;8.134;2023-03-23T02:10:45;6.37;;;4.70;;
5813;SDS011;2933;52.302;8.134;2023-03-23T02:15:48;5.80;;;4.40;;
5813;SDS011;2933;52.302;8.134;2023-03-23T02:21:04;6.03;;;5.20;;
5813;SDS011;2933;52.302;8.134;2023-03-23T02:26:19;13.47;;;5.17;;
5813;SDS011;2933;52.302;8.134;2023-03-23T02:31:42;6.10;;;4.37;;
5813;SDS011;2933;52.302;8.134;2023-03-23T02:36:52;4.83;;;4.40;;
5813;SDS011;2933;52.302;8.134;2023-03-23T02:42:00;4.67;;;3.63;;
5813;SDS011;2933;52.302;8.134;2023-03-23T02:47:07;5.20;;;4.13;;
5813;SDS011;2933;52.302;8.134;2023-03-23T02:52:15;5.83;;;3.67;;
5813;SDS011;2933;52.302;8.134;2023-03-23T02:57:20;4.70;;;3.73;;
5813;SDS011;2933;52.302;8.134;2023-03-23T03:02:26;4.10;;;3.70;;
5813;SDS011;2933;52.302;8.134;2023-03-23T03:07:35;7.20;;;3.53;;
5813;SDS011;2933;52.302;8.134;2023-03-23T03:12:46;3.77;;;3.47;;
5813;SDS011;2933;52.302;8.134;2023-03-23T03:17:53;3.77;;;3.27;;
5813;SDS011;2933;52.302;8.134;2023-03-23T03:23:03;4.73;;;3.10;;
5813;SDS011;2933;52.302;8.134;2023-03-23T03:28:07;4.53;;;3.27;;
5813;SDS011;2933;52.302;8.134;2023-03-23T03:33:09;5.33;;;3.50;;
5813;SDS011;2933;52.302;8.134;2023-03-23T03:38:14;3.13;;;2.90;;
5813;SDS011;2933;52.302;8.134;2023-03-23T03:43:15;3.33;;;2.80;;
5813;SDS011;2933;52.302;8.134;2023-03-23T03:48:17;2.80;;;2.43;;
5813;SDS011;2933;52.302;8.134;2023-03-23T03:53:20;3.37;;;2.73;;
5813;SDS011;2933;52.302;8.134;2023-03-23T03:58:21;2.70;;;2.50;;
5813;SDS011;2933;52.302;8.134;2023-03-23T04:03:24;2.60;;;2.20;;
5813;SDS011;2933;52.302;8.134;2023-03-23T04:08:28;3.77;;;2.13;;
5813;SDS011;2933;52.302;8.134;2023-03-23T04:13:29;2.30;;;2.10;;
5813;SDS011;2933;52.302;8.134;2023-03-23T04:18:31;2.80;;;2.27;;
5813;SDS011;2933;52.302;8.134;2023-03-23T04:23:35;2.40;;;1.90;;
5813;SDS011;2933;52.302;8.134;2023-03-23T04:28:38;3.17;;;2.00;;
5813;SDS011;2933;52.302;8.134;2023-03-23T04:33:41;2.27;;;2.17;;
5813;SDS011;2933;52.302;8.134;2023-03-23T04:38:43;3.40;;;2.63;;
5813;SDS011;2933;52.302;8.134;2023-03-23T04:43:45;2.53;;;2.33;;
5813;SDS011;2933;52.302;8.134;2023-03-23T04:48:52;2.20;;;2.00;;
5813;SDS011;2933;52.302;8.134;2023-03-23T04:53:56;5.00;;;2.40;;
5813;SDS011;2933;52.302;8.134;2023-03-23T04:58:58;2.33;;;2.13;;
5813;SDS011;2933;52.302;8.134;2023-03-23T05:04:00;3.17;;;2.40;;
5813;SDS011;2933;52.302;8.134;2023-03-23T05:09:03;2.87;;;2.67;;
5813;SDS011;2933;52.302;8.134;2023-03-23T05:14:05;2.70;;;2.50;;
5813;SDS011;2933;52.302;8.134;2023-03-23T05:19:07;2.47;;;2.37;;
5813;SDS011;2933;52.302;8.134;2023-03-23T05:24:10;2.27;;;2.07;;
5813;SDS011;2933;52.302;8.134;2023-03-23T05:29:11;4.17;;;2.53;;
5813;SDS011;2933;52.302;8.134;2023-03-23T05:34:13;2.47;;;2.27;;
5813;SDS011;2933;52.302;8.134;2023-03-23T05:39:17;2.87;;;2.10;;
5813;SDS011;2933;52.302;8.134;2023-03-23T05:44:18;4.00;;;2.60;;
5813;SDS011;2933;52.302;8.134;2023-03-23T05:49:20;3.60;;;2.57;;
5813;SDS011;2933;52.302;8.134;2023-03-23T05:54:23;4.00;;;2.40;;
5813;SDS011;2933;52.302;8.134;2023-03-23T05:59:25;2.70;;;2.50;;
5813;SDS011;2933;52.302;8.134;2023-03-23T06:04:27;2.57;;;2.37;;
5813;SDS011;2933;52.302;8.134;2023-03-23T06:09:30;2.70;;;2.40;;
5813;SDS011;2933;52.302;8.134;2023-03-23T06:14:31;3.20;;;2.67;;
5813;SDS011;2933;52.302;8.134;2023-03-23T06:19:33;2.77;;;2.57;;
5813;SDS011;2933;52.302;8.134;2023-03-23T06:24:36;2.43;;;2.17;;
5813;SDS011;2933;52.302;8.134;2023-03-23T06:29:38;3.00;;;2.60;;
5813;SDS011;2933;52.302;8.134;2023-03-23T06:34:40;2.60;;;2.40;;
5813;SDS011;2933;52.302;8.134;2023-03-23T06:39:44;3.43;;;3.10;;
5813;SDS011;2933;52.302;8.134;2023-03-23T06:44:46;2.67;;;2.47;;
5813;SDS011;2933;52.302;8.134;2023-03-23T06:49:47;2.77;;;2.57;;
5813;SDS011;2933;52.302;8.134;2023-03-23T06:54:50;3.00;;;2.47;;
5813;SDS011;2933;52.302;8.134;2023-03-23T06:59:52;2.63;;;2.40;;
5813;SDS011;2933;52.302;8.134;2023-03-23T07:04:54;5.50;;;2.67;;
5813;SDS011;2933;52.302;8.134;2023-03-23T07:09:58;6.03;;;2.60;;
5813;SDS011;2933;52.302;8.134;2023-03-23T07:15:00;9.00;;;2.20;;
5813;SDS011;2933;52.302;8.134;2023-03-23T07:20:02;5.30;;;2.50;;
5813;SDS011;2933;52.302;8.134;2023-03-23T07:25:06;2.50;;;2.37;;
5813;SDS011;2933;52.302;8.134;2023-03-23T07:30:09;3.70;;;2.93;;
5813;SDS011;2933;52.302;8.134;2023-03-23T07:35:12;2.77;;;2.60;;
5813;SDS011;2933;52.302;8.134;2023-03-23T07:40:15;4.60;;;2.87;;
5813;SDS011;2933;52.302;8.134;2023-03-23T07:45:18;6.83;;;3.30;;
5813;SDS011;2933;52.302;8.134;2023-03-23T07:50:20;3.33;;;2.93;;
5813;SDS011;2933;52.302;8.134;2023-03-23T07:55:25;3.73;;;2.80;;
5813;SDS011;2933;52.302;8.134;2023-03-23T08:00:27;6.50;;;2.90;;
5813;SDS011;2933;52.302;8.134;2023-03-23T08:05:29;2.97;;;2.63;;
5813;SDS011;2933;52.302;8.134;2023-03-23T08:10:33;3.80;;;2.80;;
5813;SDS011;2933;52.302;8.134;2023-03-23T08:15:35;2.90;;;2.70;;
5813;SDS011;2933;52.302;8.134;2023-03-23T08:20:37;3.13;;;2.93;;
5813;SDS011;2933;52.302;8.134;2023-03-23T08:25:41;5.60;;;2.70;;
5813;SDS011;2933;52.302;8.134;2023-03-23T08:30:43;3.63;;;3.00;;
5813;SDS011;2933;52.302;8.134;2023-03-23T08:35:45;6.20;;;3.03;;
5813;SDS011;2933;52.302;8.134;2023-03-23T08:40:48;6.13;;;2.80;;
5813;SDS011;2933;52.302;8.134;2023-03-23T08:45:50;5.43;;;2.70;;
5813;SDS011;2933;52.302;8.134;2023-03-23T08:50:53;3.20;;;2.97;;
5813;SDS011;2933;52.302;8.134;2023-03-23T08:55:55;3.10;;;2.90;;
5813;SDS011;2933;52.302;8.134;2023-03-23T09:00:57;3.63;;;3.27;;
5813;SDS011;2933;52.302;8.134;2023-03-23T09:06:00;3.43;;;2.73;;
5813;SDS011;2933;52.302;8.134;2023-03-23T09:11:04;4.10;;;2.77;;
5813;SDS011;2933;52.302;8.134;2023-03-23T09:16:08;4.17;;;2.70;;
5813;SDS011;2933;52.302;8.134;2023-03-23T09:21:10;6.67;;;3.13;;
5813;SDS011;2933;52.302;8.134;2023-03-23T09:26:14;2.90;;;2.57;;
5813;SDS011;2933;52.302;8.134;2023-03-23T09:31:15;6.63;;;2.33;;
5813;SDS011;2933;52.302;8.134;2023-03-23T09:36:20;5.33;;;2.60;;
5813;SDS011;2933;52.302;8.134;2023-03-23T09:41:29;2.87;;;2.13;;
5813;SDS011;2933;52.302;8.134;2023-03-23T09:46:48;6.60;;;2.57;;
5813;SDS011;2933;52.302;8.134;2023-03-23T09:51:57;1.90;;;1.80;;
5813;SDS011;2933;52.302;8.134;2023-03-23T09:57:05;3.80;;;2.47;;
5813;SDS011;2933;52.302;8.134;2023-03-23T10:02:15;1.40;;;1.30;;
5813;SDS011;2933;52.302;8.134;2023-03-23T10:07:20;3.07;;;1.10;;
5813;SDS011;2933;52.302;8.134;2023-03-23T10:12:27;1.93;;;1.40;;
5813;SDS011;2933;52.302;8.134;2023-03-23T10:17:33;4.20;;;1.07;;
5813;SDS011;2933;52.302;8.134;2023-03-23T10:22:42;2.60;;;0.70;;
5813;SDS011;2933;52.302;8.134;2023-03-23T10:27:52;1.80;;;1.10;;
5813;SDS011;2933;52.302;8.134;2023-03-23T10:33:01;1.10;;;1.00;;
5813;SDS011;2933;52.302;8.134;2023-03-23T10:38:05;0.80;;;0.80;;
5813;SDS011;2933;52.302;8.134;2023-03-23T10:43:13;2.40;;;0.90;;
5813;SDS011;2933;52.302;8.134;2023-03-23T10:48:16;6.97;;;1.00;;
5813;SDS011;2933;52.302;8.134;2023-03-23T10:53:25;1.73;;;1.20;;
5813;SDS011;2933;52.302;8.134;2023-03-23T10:58:34;0.80;;;0.80;;
5813;SDS011;2933;52.302;8.134;2023-03-23T11:03:38;1.53;;;1.00;;
5813;SDS011;2933;52.302;8.134;2023-03-23T11:08:47;3.50;;;1.43;;
5813;SDS011;2933;52.302;8.134;2023-03-23T11:13:57;1.57;;;0.90;;
5813;SDS011;2933;52.302;8.134;2023-03-23T11:19:11;1.00;;;0.90;;
5813;SDS011;2933;52.302;8.134;2023-03-23T11:24:13;1.67;;;1.10;;
5813;SDS011;2933;52.302;8.134;2023-03-23T11:29:18;0.90;;;0.80;;
5813;SDS011;2933;52.302;8.134;2023-03-23T11:34:23;6.03;;;1.20;;
5813;SDS011;2933;52.302;8.134;2023-03-23T11:39:27;4.70;;;0.97;;
5813;SDS011;2933;52.302;8.134;2023-03-23T11:44:33;3.13;;;1.17;;
5813;SDS011;2933;52.302;8.134;2023-03-23T11:49:39;5.73;;;1.00;;
5813;SDS011;2933;52.302;8.134;2023-03-23T11:54:48;7.63;;;1.00;;
5813;SDS011;2933;52.302;8.134;2023-03-23T11:59:57;0.90;;;0.80;;
5813;SDS011;2933;52.302;8.134;2023-03-23T12:05:10;2.70;;;0.90;;
5813;SDS011;2933;52.302;8.134;2023-03-23T12:10:39;2.17;;;0.80;;
5813;SDS011;2933;52.302;8.134;2023-03-23T12:15:51;5.03;;;0.97;;
5813;SDS011;2933;52.302;8.134;2023-03-23T12:20:59;0.77;;;0.70;;
5813;SDS011;2933;52.302;8.134;2023-03-23T12:26:12;4.93;;;1.00;;
5813;SDS011;2933;52.302;8.134;2023-03-23T12:31:20;2.90;;;0.90;;
5813;SDS011;2933;52.302;8.134;2023-03-23T12:36:30;1.20;;;0.90;;
5813;SDS011;2933;52.302;8.134;2023-03-23T12:41:42;1.43;;;0.73;;
5813;SDS011;2933;52.302;8.134;2023-03-23T12:46:55;0.97;;;0.80;;
5813;SDS011;2933;52.302;8.134;2023-03-23T12:52:10;1.20;;;0.60;;
5813;SDS011;2933;52.302;8.134;2023-03-23T12:57:18;3.33;;;0.83;;
5813;SDS011;2933;52.302;8.134;2023-03-23T13:02:28;3.03;;;1.07;;
5813;SDS011;2933;52.302;8.134;2023-03-23T13:07:34;2.33;;;1.03;;
5813;SDS011;2933;52.302;8.134;2023-03-23T13:12:41;0.80;;;0.67;;
5813;SDS011;2933;52.302;8.134;2023-03-23T13:17:46;0.70;;;0.70;;
5813;SDS011;2933;52.302;8.134;2023-03-23T13:22:54;3.53;;;0.83;;
5813;SDS011;2933;52.302;8.134;2023-03-23T13:28:03;2.50;;;1.07;;
5813;SDS011;2933;52.302;8.134;2023-03-23T13:33:06;4.53;;;0.80;;
5813;SDS011;2933;52.302;8.134;2023-03-23T13:38:18;3.27;;;0.97;;
5813;SDS011;2933;52.302;8.134;2023-03-23T13:43:25;2.40;;;1.10;;
5813;SDS011;2933;52.302;8.134;2023-03-23T13:48:38;2.80;;;1.40;;
5813;SDS011;2933;52.302;8.134;2023-03-23T13:53:45;3.63;;;0.80;;
5813;SDS011;2933;52.302;8.134;2023-03-23T13:58:48;1.80;;;0.80;;
5813;SDS011;2933;52.302;8.134;2023-03-23T14:03:53;2.00;;;1.10;;
5813;SDS011;2933;52.302;8.134;2023-03-23T14:08:56;4.70;;;0.83;;
5813;SDS011;2933;52.302;8.134;2023-03-23T14:14:05;5.33;;;1.03;;
5813;SDS011;2933;52.302;8.134;2023-03-23T14:19:17;2.53;;;1.00;;
5813;SDS011;2933;52.302;8.134;2023-03-23T14:24:23;1.73;;;1.07;;
5813;SDS011;2933;52.302;8.134;2023-03-23T14:29:25;1.47;;;1.07;;
5813;SDS011;2933;52.302;8.134;2023-03-23T14:34:29;1.80;;;1.07;;
5813;SDS011;2933;52.302;8.134;2023-03-23T14:39:35;2.60;;;1.23;;
5813;SDS011;2933;52.302;8.134;2023-03-23T14:44:39;1.97;;;1.87;;
5813;SDS011;2933;52.302;8.134;2023-03-23T14:49:43;5.53;;;2.17;;
5813;SDS011;2933;52.302;8.134;2023-03-23T14:54:46;2.13;;;1.90;;
5813;SDS011;2933;52.302;8.134;2023-03-23T14:59:48;4.70;;;3.17;;
5813;SDS011;2933;52.302;8.134;2023-03-23T15:04:52;2.80;;;2.70;;
5813;SDS011;2933;52.302;8.134;2023-03-23T15:09:56;2.93;;;2.63;;
5813;SDS011;2933;52.302;8.134;2023-03-23T15:14:59;2.80;;;2.63;;
5813;SDS011;2933;52.302;8.134;2023-03-23T15:20:09;7.63;;;3.53;;
5813;SDS011;2933;52.302;8.134;2023-03-23T15:25:20;3.53;;;3.23;;
5813;SDS011;2933;52.302;8.134;2023-03-23T15:30:31;3.63;;;3.07;;
5813;SDS011;2933;52.302;8.134;2023-03-23T15:35:37;3.73;;;3.43;;
5813;SDS011;2933;52.302;8.134;2023-03-23T15:40:41;4.07;;;3.60;;
5813;SDS011;2933;52.302;8.134;2023-03-23T15:45:52;5.33;;;3.67;;
5813;SDS011;2933;52.302;8.134;2023-03-23T15:50:57;4.87;;;4.37;;
5813;SDS011;2933;52.302;8.134;2023-03-23T15:56:00;1.97;;;1.87;;
5813;SDS011;2933;52.302;8.134;2023-03-23T16:01:04;2.80;;;1.73;;
5813;SDS011;2933;52.302;8.134;2023-03-23T16:06:13;3.60;;;3.30;;
5813;SDS011;2933;52.302;8.134;2023-03-23T16:11:17;3.60;;;3.30;;
5813;SDS011;2933;52.302;8.134;2023-03-23T16:16:20;4.40;;;3.20;;
5813;SDS011;2933;52.302;8.134;2023-03-23T16:21:25;6.60;;;3.77;;
5813;SDS011;2933;52.302;8.134;2023-03-23T16:26:26;4.93;;;4.43;;
5813;SDS011;2933;52.302;8.134;2023-03-23T16:31:28;4.43;;;3.90;;
5813;SDS011;2933;52.302;8.134;2023-03-23T16:36:31;5.67;;;4.37;;
5813;SDS011;2933;52.302;8.134;2023-03-23T16:41:32;6.17;;;4.90;;
5813;SDS011;2933;52.302;8.134;2023-03-23T16:46:34;9.50;;;5.07;;
5813;SDS011;2933;52.302;8.134;2023-03-23T16:51:37;8.10;;;5.20;;
5813;SDS011;2933;52.302;8.134;2023-03-23T16:56:38;9.67;;;6.33;;
5813;SDS011;2933;52.302;8.134;2023-03-23T17:01:40;7.47;;;6.70;;
5813;SDS011;2933;52.302;8.134;2023-03-23T17:06:43;7.53;;;6.60;;
5813;SDS011;2933;52.302;8.134;2023-03-23T17:11:45;17.30;;;9.20;;
5813;SDS011;2933;52.302;8.134;2023-03-23T17:16:47;10.90;;;7.80;;
5813;SDS011;2933;52.302;8.134;2023-03-23T17:21:50;10.77;;;7.63;;
5813;SDS011;2933;52.302;8.134;2023-03-23T17:26:52;14.17;;;7.63;;
5813;SDS011;2933;52.302;8.134;2023-03-23T17:31:53;10.57;;;6.93;;
5813;SDS011;2933;52.302;8.134;2023-03-23T17:36:56;6.60;;;5.63;;
5813;SDS011;2933;52.302;8.134;2023-03-23T17:41:58;7.97;;;5.10;;
5813;SDS011;2933;52.302;8.134;2023-03-23T17:47:00;6.67;;;4.93;;
5813;SDS011;2933;52.302;8.134;2023-03-23T17:52:03;6.47;;;3.50;;
5813;SDS011;2933;52.302;8.134;2023-03-23T17:57:05;6.70;;;4.10;;
5813;SDS011;2933;52.302;8.134;2023-03-23T18:02:06;7.40;;;4.13;;
5813;SDS011;2933;52.302;8.134;2023-03-23T18:07:09;8.10;;;4.03;;
5813;SDS011;2933;52.302;8.134;2023-03-23T18:12:11;9.90;;;3.83;;
5813;SDS011;2933;52.302;8.134;2023-03-23T18:17:12;8.23;;;3.70;;
5813;SDS011;2933;52.302;8.134;2023-03-23T18:22:15;6.83;;;3.80;;
5813;SDS011;2933;52.302;8.134;2023-03-23T18:27:17;3.70;;;3.40;;
5813;SDS011;2933;52.302;8.134;2023-03-23T18:32:19;6.77;;;3.70;;
5813;SDS011;2933;52.302;8.134;2023-03-23T18:37:24;4.53;;;3.80;;
5813;SDS011;2933;52.302;8.134;2023-03-23T18:42:26;6.90;;;4.40;;
5813;SDS011;2933;52.302;8.134;2023-03-23T18:47:28;5.73;;;3.70;;
5813;SDS011;2933;52.302;8.134;2023-03-23T18:52:31;5.40;;;3.90;;
5813;SDS011;2933;52.302;8.134;2023-03-23T18:57:33;5.30;;;4.13;;
5813;SDS011;2933;52.302;8.134;2023-03-23T19:02:38;5.40;;;3.73;;
5813;SDS011;2933;52.302;8.134;2023-03-23T19:07:42;4.90;;;3.60;;
5813;SDS011;2933;52.302;8.134;2023-03-23T19:12:43;3.90;;;3.60;;
5813;SDS011;2933;52.302;8.134;2023-03-23T19:17:45;6.50;;;4.90;;
5813;SDS011;2933;52.302;8.134;2023-03-23T19:22:48;8.10;;;5.60;;
5813;SDS011;2933;52.302;8.134;2023-03-23T19:27:50;8.67;;;5.67;;
5813;SDS011;2933;52.302;8.134;2023-03-23T19:32:52;5.83;;;3.80;;
5813;SDS011;2933;52.302;8.134;2023-03-23T19:37:55;4.53;;;3.30;;
5813;SDS011;2933;52.302;8.134;2023-03-23T19:42:56;4.90;;;3.00;;
5813;SDS011;2933;52.302;8.134;2023-03-23T19:47:58;8.53;;;3.90;;
5813;SDS011;2933;52.302;8.134;2023-03-23T19:53:00;8.50;;;4.13;;
5813;SDS011;2933;52.302;8.134;2023-03-23T19:58:02;5.50;;;3.37;;
5813;SDS011;2933;52.302;8.134;2023-03-23T20:03:04;5.37;;;3.30;;
5813;SDS011;2933;52.302;8.134;2023-03-23T20:08:07;4.87;;;2.97;;
5813;SDS011;2933;52.302;8.134;2023-03-23T20:13:09;5.77;;;3.57;;
5813;SDS011;2933;52.302;8.134;2023-03-23T20:18:11;4.50;;;3.30;;
5813;SDS011;2933;52.302;8.134;2023-03-23T20:23:18;5.90;;;3.40;;
5813;SDS011;2933;52.302;8.134;2023-03-23T20:28:21;3.70;;;2.57;;
5813;SDS011;2933;52.302;8.134;2023-03-23T20:33:22;6.00;;;3.00;;
5813;SDS011;2933;52.302;8.134;2023-03-23T20:38:27;5.73;;;3.00;;
5813;SDS011;2933;52.302;8.134;2023-03-23T20:43:30;2.43;;;2.33;;
5813;SDS011;2933;52.302;8.134;2023-03-23T20:48:33;4.70;;;2.80;;
5813;SDS011;2933;52.302;8.134;2023-03-23T20:53:37;10.83;;;2.80;;
5813;SDS011;2933;52.302;8.134;2023-03-23T20:58:39;2.70;;;2.27;;
5813;SDS011;2933;52.302;8.134;2023-03-23T21:03:41;5.23;;;2.30;;
5813;SDS011;2933;52.302;8.134;2023-03-23T21:08:44;4.00;;;2.43;;
5813;SDS011;2933;52.302;8.134;2023-03-23T21:13:47;4.40;;;2.73;;
5813;SDS011;2933;52.302;8.134;2023-03-23T21:18:49;2.93;;;2.10;;
5813;SDS011;2933;52.302;8.134;2023-03-23T21:23:52;3.40;;;2.40;;
5813;SDS011;2933;52.302;8.134;2023-03-23T21:28:56;2.50;;;2.30;;
5813;SDS011;2933;52.302;8.134;2023-03-23T21:33:59;3.13;;;2.50;;
5813;SDS011;2933;52.302;8.134;2023-03-23T21:39:02;3.87;;;2.40;;
5813;SDS011;2933;52.302;8.134;2023-03-23T21:44:05;7.03;;;2.00;;
5813;SDS011;2933;52.302;8.134;2023-03-23T21:49:09;3.30;;;2.30;;
5813;SDS011;2933;52.302;8.134;2023-03-23T21:54:14;3.83;;;1.70;;
5813;SDS011;2933;52.302;8.134;2023-03-23T21:59:16;3.50;;;2.30;;
5813;SDS011;2933;52.302;8.134;2023-03-23T22:04:17;2.27;;;2.07;;
5813;SDS011;2933;52.302;8.134;2023-03-23T22:09:21;2.33;;;2.10;;
5813;SDS011;2933;52.302;8.134;2023-03-23T22:14:23;4.70;;;1.70;;
5813;SDS011;2933;52.302;8.134;2023-03-23T22:19:24;7.63;;;2.10;;
5813;SDS011;2933;52.302;8.134;2023-03-23T22:24:27;5.90;;;1.93;;
5813;SDS011;2933;52.302;8.134;2023-03-23T22:29:29;9.13;;;2.50;;
5813;SDS011;2933;52.302;8.134;2023-03-23T22:34:30;5.70;;;2.67;;
5813;SDS011;2933;52.302;8.134;2023-03-23T22:39:33;4.00;;;1.77;;
5813;SDS011;2933;52.302;8.134;2023-03-23T22:44:35;4.20;;;1.80;;
5813;SDS011;2933;52.302;8.134;2023-03-23T22:49:37;3.33;;;2.10;;
5813;SDS011;2933;52.302;8.134;2023-03-23T22:54:40;2.50;;;1.70;;
5813;SDS011;2933;52.302;8.134;2023-03-23T22:59:41;3.60;;;1.50;;
5813;SDS011;2933;52.302;8.134;2023-03-23T23:04:43;3.77;;;2.03;;
5813;SDS011;2933;52.302;8.134;2023-03-23T23:09:47;6.10;;;1.60;;
5813;SDS011;2933;52.302;8.134;2023-03-23T23:14:48;4.20;;;1.83;;
5813;SDS011;2933;52.302;8.134;2023-03-23T23:19:50;2.70;;;1.83;;
5813;SDS011;2933;52.302;8.134;2023-03-23T23:24:53;6.00;;;1.60;;
5813;SDS011;2933;52.302;8.134;2023-03-23T23:29:55;2.97;;;2.00;;
5813;SDS011;2933;52.302;8.134;2023-03-23T23:34:59;5.63;;;2.50;;
5813;SDS011;2933;52.302;8.134;2023-03-23T23:40:02;5.47;;;2.33;;
5813;SDS011;2933;52.302;8.134;2023-03-23T23:45:07;2.53;;;1.97;;
5813;SDS011;2933;52.302;8.134;2023-03-23T23:50:10;4.80;;;2.30;;
5813;SDS011;2933;52.302;8.134;2023-03-23T23:55:14;5.90;;;1.90;;
